Terminal Aerodrome Forecast
Issued by NWS

Current Version | Previous Version | Text Only | Print | Product List | Glossary Off
Versions: 1 2 3 4 5 6 7 8 9 10 11 12 13 14 15 16 17 18 19 20 21 22 23 24 25 26 27

000
FTUS44 KOHX 012339
TAFCKV
TAF
KCKV 012339Z 0200/0224 26006KT P6SM BKN250
     FM020600 00000KT 4SM BR BKN250
     FM020900 00000KT 2SM BR SCT250
     FM021400 10003KT P6SM BKN250
     FM021600 07003KT P6SM SCT060 BKN250=

USA.gov is the U.S. government's official web portal to all federal, state and local government web resources and services.